Time;durP1;ratioP1;P1;durP2;ratioP2;P2;SDS_P1;SDS_P2;PMS_P1;PMS_P2;Temp;Humidity;BMP_temperature;BMP_pressure;BME280_temperature;BME280_humidity;BME280_pressure;Samples;Min_cycle;Max_cycle;Signal;HPM_P1;HPM_P2
2021/07/25 00:00:34;;;;;;;16.27;2.88;;;;;;;;;;4997644;28;20011;-38
2021/07/25 00:03:01;;;;;;;14.32;3.22;;;;;;;;;;4992980;28;20058;-45
2021/07/25 00:05:29;;;;;;;16.48;3.05;;;;;;;;;;4991785;28;20033;-36
2021/07/25 00:07:56;;;;;;;14.88;3.25;;;;;;;;;;4991738;28;20018;-36
2021/07/25 00:10:23;;;;;;;14.73;3.70;;;;;;;;;;4987089;28;20902;-41
2021/07/25 00:12:50;;;;;;;13.35;3.13;;;;;;;;;;4987271;28;20077;-45
2021/07/25 00:15:18;;;;;;;26.92;3.53;;;;;;;;;;4987815;28;20014;-40
2021/07/25 00:17:45;;;;;;;13.57;2.78;;;;;;;;;;4988767;28;20061;-44
2021/07/25 00:20:12;;;;;;;14.20;3.10;;;;;;;;;;4992022;28;20018;-40
2021/07/25 00:22:40;;;;;;;17.40;3.10;;;;;;;;;;4991732;28;20097;-39
2021/07/25 00:25:08;;;;;;;11.60;2.38;;;;;;;;;;4991845;28;20030;-38
2021/07/25 00:27:38;;;;;;;14.38;3.15;;;;;;;;;;4991638;28;20481;-39
2021/07/25 00:30:05;;;;;;;16.92;3.10;;;;;;;;;;4991950;28;20080;-36
2021/07/25 00:32:32;;;;;;;12.43;2.90;;;;;;;;;;4991968;28;20011;-40
2021/07/25 00:34:59;;;;;;;15.68;2.58;;;;;;;;;;4992300;28;20676;-40
2021/07/25 00:37:26;;;;;;;11.50;2.70;;;;;;;;;;4991115;28;20014;-38
2021/07/25 00:39:53;;;;;;;15.60;2.67;;;;;;;;;;4991534;28;20030;-37
2021/07/25 00:42:20;;;;;;;13.70;2.72;;;;;;;;;;4991698;28;20489;-37
2021/07/25 00:44:47;;;;;;;11.73;2.47;;;;;;;;;;4992124;28;20022;-39
2021/07/25 00:47:14;;;;;;;15.18;2.55;;;;;;;;;;4991286;28;20482;-38
2021/07/25 00:49:41;;;;;;;17.73;2.95;;;;;;;;;;4992224;28;20029;-38
2021/07/25 00:52:09;;;;;;;12.13;2.72;;;;;;;;;;4992079;28;20045;-36
2021/07/25 00:54:36;;;;;;;12.07;2.58;;;;;;;;;;4987936;28;20018;-39
2021/07/25 00:57:03;;;;;;;16.42;2.97;;;;;;;;;;4989347;28;20034;-38
2021/07/25 00:59:30;;;;;;;28.50;3.17;;;;;;;;;;4990956;28;20069;-38
2021/07/25 01:01:57;;;;;;;25.75;3.33;;;;;;;;;;4990585;28;20032;-37
2021/07/25 01:04:32;;;;;;;23.70;3.13;;;;;;;;;;4991052;28;20030;-37
2021/07/25 01:07:02;;;;;;;13.35;3.05;;;;;;;;;;4991324;28;20473;-38
2021/07/25 01:09:44;;;;;;;11.68;2.45;;;;;;;;;;4990591;28;20034;-37
2021/07/25 01:12:19;;;;;;;21.30;4.03;;;;;;;;;;4988459;28;20506;-37
2021/07/25 01:14:47;;;;;;;19.58;5.57;;;;;;;;;;4989021;28;20037;-38
2021/07/25 01:17:27;;;;;;;26.65;8.57;;;;;;;;;;4991352;28;20092;-36
2021/07/25 01:19:58;;;;;;;34.15;10.15;;;;;;;;;;4989939;28;20057;-38
2021/07/25 01:22:26;;;;;;;35.40;12.68;;;;;;;;;;4988686;28;20030;-37
2021/07/25 01:24:53;;;;;;;43.60;12.95;;;;;;;;;;4989704;28;20018;-38
2021/07/25 01:27:27;;;;;;;42.60;14.50;;;;;;;;;;4990589;28;20042;-38
2021/07/25 01:29:56;;;;;;;43.83;13.98;;;;;;;;;;4989162;28;20410;-36
2021/07/25 01:32:24;;;;;;;29.67;11.52;;;;;;;;;;4989347;28;20022;-37
2021/07/25 01:34:52;;;;;;;42.50;11.45;;;;;;;;;;4985233;28;20022;-37
2021/07/25 01:37:19;;;;;;;38.22;11.38;;;;;;;;;;4987722;28;20534;-41
2021/07/25 01:39:47;;;;;;;35.03;10.90;;;;;;;;;;4987724;28;20399;-37
2021/07/25 01:42:14;;;;;;;34.45;12.18;;;;;;;;;;4988364;28;20022;-37
2021/07/25 01:44:41;;;;;;;27.48;10.88;;;;;;;;;;4987558;28;20184;-37
2021/07/25 01:47:08;;;;;;;45.08;10.90;;;;;;;;;;4988112;28;20137;-41
2021/07/25 01:49:35;;;;;;;27.95;10.65;;;;;;;;;;4986810;28;20398;-39
2021/07/25 01:52:02;;;;;;;26.90;9.30;;;;;;;;;;4987401;28;20030;-36
2021/07/25 01:54:29;;;;;;;22.08;9.35;;;;;;;;;;4987885;28;20467;-36
2021/07/25 01:56:56;;;;;;;37.95;10.13;;;;;;;;;;4986149;28;20045;-36
2021/07/25 01:59:23;;;;;;;32.28;9.32;;;;;;;;;;4988121;28;20505;-37
2021/07/25 02:01:50;;;;;;;23.05;9.30;;;;;;;;;;4987713;28;20558;-37
2021/07/25 02:04:17;;;;;;;29.30;9.25;;;;;;;;;;4987599;28;20011;-37
2021/07/25 02:06:44;;;;;;;29.77;9.00;;;;;;;;;;4988513;28;20030;-37
2021/07/25 02:09:13;;;;;;;22.48;7.82;;;;;;;;;;4990298;28;20042;-37
2021/07/25 02:11:40;;;;;;;21.75;8.00;;;;;;;;;;4989376;28;20226;-37
2021/07/25 02:14:08;;;;;;;23.83;8.20;;;;;;;;;;4991515;28;20050;-36
2021/07/25 02:16:36;;;;;;;23.70;7.07;;;;;;;;;;4991856;28;20379;-38
2021/07/25 02:19:03;;;;;;;22.45;7.18;;;;;;;;;;4991969;28;20040;-38
2021/07/25 02:21:30;;;;;;;18.77;6.53;;;;;;;;;;4992430;28;20030;-36
2021/07/25 02:23:57;;;;;;;22.33;7.40;;;;;;;;;;4991126;28;20466;-38
2021/07/25 02:26:24;;;;;;;20.48;7.05;;;;;;;;;;4992037;28;20113;-39
2021/07/25 02:28:51;;;;;;;20.83;6.32;;;;;;;;;;4989361;28;20041;-37
2021/07/25 02:31:19;;;;;;;15.02;5.90;;;;;;;;;;4991022;28;20055;-37
2021/07/25 02:33:46;;;;;;;18.42;6.35;;;;;;;;;;4991774;28;20029;-36
2021/07/25 02:36:13;;;;;;;19.85;6.30;;;;;;;;;;5002396;28;20022;-37
2021/07/25 02:38:40;;;;;;;14.80;5.50;;;;;;;;;;4994057;28;20029;-37
2021/07/25 02:41:07;;;;;;;22.45;6.28;;;;;;;;;;4994801;28;20030;-37
2021/07/25 02:43:34;;;;;;;21.25;6.00;;;;;;;;;;4994291;28;20122;-38
2021/07/25 02:46:01;;;;;;;19.48;5.80;;;;;;;;;;4993932;28;20202;-38
2021/07/25 02:48:28;;;;;;;17.17;5.57;;;;;;;;;;4992813;28;20030;-38
2021/07/25 02:50:58;;;;;;;18.20;5.57;;;;;;;;;;4991908;28;20034;-39
2021/07/25 02:53:26;;;;;;;17.75;5.85;;;;;;;;;;4991915;28;20115;-38
2021/07/25 02:55:53;;;;;;;27.50;6.32;;;;;;;;;;4993908;28;20105;-39
2021/07/25 02:58:20;;;;;;;23.33;5.72;;;;;;;;;;4994571;28;20110;-38
2021/07/25 03:00:47;;;;;;;17.27;5.63;;;;;;;;;;4994065;28;20010;-37
2021/07/25 03:03:15;;;;;;;21.75;5.22;;;;;;;;;;4994524;28;20029;-38
2021/07/25 03:05:42;;;;;;;20.98;4.70;;;;;;;;;;4994078;28;20019;-37
2021/07/25 03:08:09;;;;;;;21.65;5.70;;;;;;;;;;4994521;28;20166;-38
2021/07/25 03:10:36;;;;;;;16.67;4.93;;;;;;;;;;4993810;28;20081;-38
2021/07/25 03:13:03;;;;;;;18.92;5.13;;;;;;;;;;5001528;28;20230;-38
2021/07/25 03:15:30;;;;;;;17.00;5.03;;;;;;;;;;4994898;28;20030;-39
2021/07/25 03:17:58;;;;;;;15.05;5.05;;;;;;;;;;4992785;28;20050;-38
2021/07/25 03:20:29;;;;;;;14.85;4.35;;;;;;;;;;4993901;28;20092;-37
2021/07/25 03:22:56;;;;;;;14.77;4.45;;;;;;;;;;4994161;28;20501;-37
2021/07/25 03:25:23;;;;;;;14.05;4.72;;;;;;;;;;4994315;28;20153;-38
2021/07/25 03:27:50;;;;;;;14.18;4.68;;;;;;;;;;4994240;28;20054;-39
2021/07/25 03:30:17;;;;;;;14.57;4.47;;;;;;;;;;4994041;28;20022;-38
2021/07/25 03:32:44;;;;;;;18.00;4.47;;;;;;;;;;4994129;28;20025;-38
2021/07/25 03:35:11;;;;;;;21.17;4.68;;;;;;;;;;4993717;28;20026;-39
2021/07/25 03:37:40;;;;;;;17.13;5.32;;;;;;;;;;4994275;28;20032;-39
2021/07/25 03:40:08;;;;;;;16.05;4.22;;;;;;;;;;4993513;28;20486;-39
2021/07/25 03:42:36;;;;;;;21.63;5.05;;;;;;;;;;4993891;28;20462;-39
2021/07/25 03:45:03;;;;;;;20.88;4.47;;;;;;;;;;4993651;28;20060;-38
2021/07/25 03:47:30;;;;;;;19.27;4.60;;;;;;;;;;4994294;28;20030;-38
2021/07/25 03:49:57;;;;;;;21.20;4.57;;;;;;;;;;4992595;28;20028;-39
2021/07/25 03:52:24;;;;;;;20.13;4.53;;;;;;;;;;4974267;28;20065;-38
2021/07/25 03:54:51;;;;;;;37.70;4.70;;;;;;;;;;4985860;28;20027;-38
2021/07/25 03:57:18;;;;;;;16.33;4.00;;;;;;;;;;4993798;28;20501;-38
2021/07/25 03:59:45;;;;;;;18.25;4.40;;;;;;;;;;4992862;28;20026;-38
2021/07/25 04:02:12;;;;;;;13.55;3.97;;;;;;;;;;4993249;28;20022;-39
2021/07/25 04:04:39;;;;;;;12.55;3.90;;;;;;;;;;4992902;28;20033;-38
2021/07/25 04:07:06;;;;;;;14.93;4.15;;;;;;;;;;4993473;28;20371;-38
2021/07/25 04:09:34;;;;;;;14.38;3.90;;;;;;;;;;4993442;28;20482;-39
2021/07/25 04:12:01;;;;;;;12.30;4.32;;;;;;;;;;4992641;28;20038;-38
2021/07/25 04:14:28;;;;;;;16.65;4.10;;;;;;;;;;4993722;28;20497;-39
2021/07/25 04:16:55;;;;;;;12.50;3.78;;;;;;;;;;4993676;28;20046;-38
2021/07/25 04:19:22;;;;;;;15.98;3.78;;;;;;;;;;4993600;28;20169;-38
2021/07/25 04:21:49;;;;;;;15.68;3.58;;;;;;;;;;4993331;28;20026;-38
2021/07/25 04:24:16;;;;;;;12.45;3.83;;;;;;;;;;4993390;28;20141;-39
2021/07/25 04:26:43;;;;;;;17.05;3.88;;;;;;;;;;4993654;28;20490;-39
2021/07/25 04:29:10;;;;;;;18.17;4.20;;;;;;;;;;4992402;28;20397;-39
2021/07/25 04:31:37;;;;;;;14.25;3.60;;;;;;;;;;4993328;28;20057;-38
2021/07/25 04:34:05;;;;;;;12.98;3.67;;;;;;;;;;4992674;28;20445;-38
2021/07/25 04:36:32;;;;;;;10.55;3.17;;;;;;;;;;4991982;28;20030;-39
2021/07/25 04:38:59;;;;;;;12.35;3.85;;;;;;;;;;4992806;28;20034;-39
2021/07/25 04:41:27;;;;;;;14.77;3.15;;;;;;;;;;4991988;28;20040;-39
2021/07/25 04:44:13;;;;;;;12.45;3.80;;;;;;;;;;4992965;28;20069;-40
2021/07/25 04:46:44;;;;;;;13.57;4.00;;;;;;;;;;4992997;28;20646;-38
2021/07/25 04:49:12;;;;;;;12.70;3.85;;;;;;;;;;4990721;28;20033;-37
2021/07/25 04:51:40;;;;;;;12.65;3.42;;;;;;;;;;4992940;28;20046;-38
2021/07/25 04:54:09;;;;;;;10.70;3.00;;;;;;;;;;4993260;28;20022;-39
2021/07/25 04:57:01;;;;;;;9.10;2.92;;;;;;;;;;4992516;28;20019;-39
2021/07/25 04:59:32;;;;;;;10.48;3.10;;;;;;;;;;4988643;28;20053;-39
2021/07/25 05:02:04;;;;;;;12.05;3.22;;;;;;;;;;4991067;28;20118;-39
2021/07/25 05:04:31;;;;;;;10.98;3.30;;;;;;;;;;4993245;28;20022;-38
2021/07/25 05:06:59;;;;;;;10.77;2.72;;;;;;;;;;4992423;28;20034;-38
2021/07/25 05:09:26;;;;;;;11.23;3.38;;;;;;;;;;4992941;28;20022;-39
2021/07/25 05:12:10;;;;;;;25.02;4.70;;;;;;;;;;4992327;28;20026;-38
2021/07/25 05:14:52;;;;;;;10.30;3.60;;;;;;;;;;4992976;28;20049;-39
2021/07/25 05:17:25;;;;;;;9.98;2.67;;;;;;;;;;4992293;28;20035;-38
2021/07/25 05:19:52;;;;;;;8.40;2.90;;;;;;;;;;4992566;28;20116;-38
2021/07/25 05:22:29;;;;;;;6.57;2.47;;;;;;;;;;4992141;28;20054;-38
2021/07/25 05:24:56;;;;;;;9.75;3.10;;;;;;;;;;4992845;28;20030;-39
2021/07/25 05:27:24;;;;;;;9.35;2.70;;;;;;;;;;4992333;28;20089;-38
2021/07/25 05:29:52;;;;;;;13.68;3.10;;;;;;;;;;4992636;28;20030;-38
2021/07/25 05:32:19;;;;;;;10.63;3.10;;;;;;;;;;4991969;28;20025;-38
2021/07/25 05:34:47;;;;;;;9.65;2.92;;;;;;;;;;4992758;28;20445;-38
2021/07/25 05:37:14;;;;;;;8.98;2.63;;;;;;;;;;4992523;28;20022;-38
2021/07/25 05:39:41;;;;;;;8.55;2.78;;;;;;;;;;4991281;28;20018;-38
2021/07/25 05:42:08;;;;;;;11.65;2.75;;;;;;;;;;4992488;28;20097;-38
2021/07/25 05:44:36;;;;;;;7.38;2.45;;;;;;;;;;4991835;28;20127;-38
2021/07/25 05:47:03;;;;;;;8.93;2.53;;;;;;;;;;4992395;28;20089;-39
2021/07/25 05:49:30;;;;;;;8.50;2.83;;;;;;;;;;4992099;28;20029;-38
2021/07/25 05:51:57;;;;;;;7.35;2.63;;;;;;;;;;4992031;28;20058;-39
2021/07/25 05:54:24;;;;;;;8.68;2.50;;;;;;;;;;4991910;28;20068;-38
2021/07/25 05:56:51;;;;;;;6.47;2.22;;;;;;;;;;4992325;28;20030;-38
2021/07/25 05:59:18;;;;;;;7.70;2.28;;;;;;;;;;4991806;28;20062;-38
2021/07/25 06:01:45;;;;;;;6.70;2.30;;;;;;;;;;4992076;28;20157;-38
2021/07/25 06:04:12;;;;;;;6.45;2.35;;;;;;;;;;4991765;28;20522;-38
2021/07/25 06:06:39;;;;;;;7.70;2.67;;;;;;;;;;4991802;28;20034;-38
2021/07/25 06:09:09;;;;;;;6.60;2.25;;;;;;;;;;4992341;28;20521;-38
2021/07/25 06:11:38;;;;;;;6.72;1.95;;;;;;;;;;4991595;28;20382;-39
2021/07/25 06:14:06;;;;;;;7.15;2.40;;;;;;;;;;4992120;28;20387;-38
2021/07/25 06:16:33;;;;;;;8.27;2.47;;;;;;;;;;4990022;28;20046;-38
2021/07/25 06:19:00;;;;;;;7.60;2.42;;;;;;;;;;4992236;28;20022;-38
2021/07/25 06:21:27;;;;;;;6.25;2.10;;;;;;;;;;4991503;28;20014;-38
2021/07/25 06:23:58;;;;;;;5.72;1.98;;;;;;;;;;4991672;28;20034;-38
2021/07/25 06:26:25;;;;;;;13.82;2.42;;;;;;;;;;4991370;28;20026;-38
2021/07/25 06:28:52;;;;;;;5.97;2.00;;;;;;;;;;4992028;28;20025;-39
2021/07/25 06:31:19;;;;;;;5.97;2.13;;;;;;;;;;4991472;28;20027;-38
2021/07/25 06:33:46;;;;;;;5.90;2.25;;;;;;;;;;4991655;28;20030;-38
2021/07/25 06:36:14;;;;;;;5.30;1.88;;;;;;;;;;4991484;28;20057;-38
2021/07/25 06:38:42;;;;;;;4.32;1.90;;;;;;;;;;4991938;28;20110;-39
2021/07/25 06:41:09;;;;;;;7.25;2.40;;;;;;;;;;4991744;28;20023;-38
2021/07/25 06:43:36;;;;;;;6.25;2.15;;;;;;;;;;4991437;28;20485;-37
2021/07/25 06:46:03;;;;;;;7.05;1.90;;;;;;;;;;4991450;28;20482;-37
2021/07/25 06:48:34;;;;;;;7.35;2.33;;;;;;;;;;4991293;28;20466;-38
2021/07/25 06:51:02;;;;;;;6.90;2.25;;;;;;;;;;4992589;28;20038;-37
2021/07/25 06:53:30;;;;;;;5.68;2.30;;;;;;;;;;4994890;28;20093;-37
2021/07/25 06:55:59;;;;;;;4.25;1.75;;;;;;;;;;4995413;28;20088;-38
2021/07/25 06:58:26;;;;;;;4.75;1.95;;;;;;;;;;4995005;28;20014;-38
2021/07/25 07:00:53;;;;;;;6.18;1.98;;;;;;;;;;4995392;28;20037;-37
2021/07/25 07:03:20;;;;;;;6.30;1.92;;;;;;;;;;4994059;28;20076;-38
2021/07/25 07:05:47;;;;;;;6.40;2.05;;;;;;;;;;4994729;28;20034;-37
2021/07/25 07:08:14;;;;;;;5.28;1.80;;;;;;;;;;4994902;28;20018;-37
2021/07/25 07:10:43;;;;;;;5.70;1.80;;;;;;;;;;4994909;28;20030;-38
2021/07/25 07:13:11;;;;;;;3.75;1.77;;;;;;;;;;4994177;28;20033;-38
2021/07/25 07:15:40;;;;;;;4.28;1.55;;;;;;;;;;4994535;28;20018;-38
2021/07/25 07:18:07;;;;;;;6.43;2.47;;;;;;;;;;4994321;28;20376;-38
2021/07/25 07:20:34;;;;;;;5.72;1.98;;;;;;;;;;4994243;28;20077;-38
2021/07/25 07:23:02;;;;;;;5.00;2.00;;;;;;;;;;4994527;28;20029;-38
2021/07/25 07:25:30;;;;;;;4.28;1.83;;;;;;;;;;4994009;28;20029;-38
2021/07/25 07:27:57;;;;;;;5.07;1.73;;;;;;;;;;4994656;28;20034;-38
2021/07/25 07:30:24;;;;;;;4.38;1.80;;;;;;;;;;4993896;28;20023;-38
2021/07/25 07:32:51;;;;;;;5.63;1.80;;;;;;;;;;4993742;28;20045;-37
2021/07/25 07:35:25;;;;;;;4.82;1.83;;;;;;;;;;4994033;28;20421;-38
2021/07/25 07:37:52;;;;;;;5.22;1.50;;;;;;;;;;4994654;28;20382;-38
2021/07/25 07:40:20;;;;;;;6.35;1.90;;;;;;;;;;4993970;28;20310;-38
2021/07/25 07:42:47;;;;;;;8.43;1.98;;;;;;;;;;4994435;28;20053;-38
2021/07/25 07:45:15;;;;;;;3.30;1.55;;;;;;;;;;4994353;28;20085;-39
2021/07/25 07:47:42;;;;;;;6.90;1.85;;;;;;;;;;4994141;28;20458;-38
2021/07/25 07:50:09;;;;;;;5.60;1.52;;;;;;;;;;4992481;28;20465;-37
2021/07/25 07:52:36;;;;;;;5.35;1.77;;;;;;;;;;4992518;28;20018;-39
2021/07/25 07:55:03;;;;;;;7.72;2.15;;;;;;;;;;4994370;28;20025;-38
2021/07/25 07:57:31;;;;;;;5.90;1.58;;;;;;;;;;4993864;28;20087;-38
2021/07/25 07:59:58;;;;;;;3.90;1.60;;;;;;;;;;4993982;28;20113;-38
2021/07/25 08:02:25;;;;;;;6.80;1.73;;;;;;;;;;4993266;28;20089;-38
2021/07/25 08:04:52;;;;;;;6.40;1.90;;;;;;;;;;4993590;28;20019;-38
2021/07/25 08:07:19;;;;;;;4.70;1.70;;;;;;;;;;4993641;28;20041;-38
2021/07/25 08:09:46;;;;;;;4.13;1.45;;;;;;;;;;4994255;28;20015;-37
2021/07/25 08:12:13;;;;;;;6.15;1.70;;;;;;;;;;4992266;28;20022;-38
2021/07/25 08:14:40;;;;;;;4.65;1.60;;;;;;;;;;4993687;28;20050;-38
2021/07/25 08:17:07;;;;;;;8.02;1.92;;;;;;;;;;4993891;28;20077;-37
2021/07/25 08:19:34;;;;;;;6.32;1.63;;;;;;;;;;4993287;28;20022;-37
2021/07/25 08:22:02;;;;;;;5.55;1.73;;;;;;;;;;4993637;28;20019;-38
2021/07/25 08:24:30;;;;;;;2.80;1.45;;;;;;;;;;4992759;28;20027;-38
2021/07/25 08:26:57;;;;;;;3.15;1.27;;;;;;;;;;4993705;28;20041;-38
2021/07/25 08:29:24;;;;;;;3.65;1.42;;;;;;;;;;4993062;28;20058;-39
2021/07/25 08:31:51;;;;;;;4.13;1.40;;;;;;;;;;4993755;28;20058;-37
2021/07/25 08:34:18;;;;;;;3.28;1.52;;;;;;;;;;4991781;28;20022;-38
2021/07/25 08:36:46;;;;;;;5.18;1.60;;;;;;;;;;4993530;28;20023;-37
2021/07/25 08:39:13;;;;;;;6.15;1.30;;;;;;;;;;4993119;28;21101;-38
2021/07/25 08:41:39;;;;;;;5.30;1.40;;;;;;;;;;4993433;28;20057;-37
2021/07/25 08:44:26;;;;;;;4.03;1.55;;;;;;;;;;4992577;28;20026;-37
2021/07/25 08:46:57;;;;;;;3.97;1.45;;;;;;;;;;4993233;28;20031;-37
2021/07/25 08:49:36;;;;;;;5.82;1.67;;;;;;;;;;4992908;28;20113;-38
2021/07/25 08:52:04;;;;;;;6.00;1.50;;;;;;;;;;4993572;28;20023;-37
2021/07/25 08:54:33;;;;;;;3.08;1.27;;;;;;;;;;4991180;28;20509;-38
2021/07/25 08:57:00;;;;;;;4.03;1.52;;;;;;;;;;4993483;28;20501;-38
2021/07/25 08:59:31;;;;;;;6.53;1.27;;;;;;;;;;4993003;28;20023;-38
2021/07/25 09:02:03;;;;;;;4.78;1.70;;;;;;;;;;4993334;28;20386;-38
2021/07/25 09:04:29;;;;;;;;;;;;;;;;;;4993139;28;20026;-38
2021/07/25 09:06:56;;;;;;;3.90;1.33;;;;;;;;;;4992230;28;19914;-38
2021/07/25 09:09:23;;;;;;;3.67;1.40;;;;;;;;;;4992820;28;20018;-37
2021/07/25 09:11:51;;;;;;;6.25;1.88;;;;;;;;;;4992164;28;20054;-37
2021/07/25 09:14:18;;;;;;;4.07;1.40;;;;;;;;;;4992812;28;20028;-37
2021/07/25 09:16:45;;;;;;;3.60;1.55;;;;;;;;;;4990789;28;20371;-38
2021/07/25 09:19:12;;;;;;;3.80;1.30;;;;;;;;;;4992327;28;20157;-38
2021/07/25 09:21:47;;;;;;;3.60;1.23;;;;;;;;;;4992019;28;20106;-37
2021/07/25 09:24:17;;;;;;;4.10;1.45;;;;;;;;;;4991143;28;20041;-37
2021/07/25 09:26:54;;;;;;;5.10;1.67;;;;;;;;;;4991926;28;20038;-37
2021/07/25 09:29:23;;;;;;;5.63;2.05;;;;;;;;;;4975286;28;20080;-37
2021/07/25 09:31:50;;;;;;;3.63;1.33;;;;;;;;;;4992107;28;20065;-37
2021/07/25 09:34:37;;;;;;;4.13;1.30;;;;;;;;;;5007803;28;20023;-38
2021/07/25 09:37:08;;;;;;;3.50;1.40;;;;;;;;;;4991802;28;20053;-38
2021/07/25 09:39:39;;;;;;;4.45;1.60;;;;;;;;;;4992689;28;20046;-37
2021/07/25 09:42:07;;;;;;;5.22;1.55;;;;;;;;;;4992018;28;20101;-37
2021/07/25 09:44:52;;;;;;;3.25;1.23;;;;;;;;;;4992077;28;20053;-38
2021/07/25 09:47:25;;;;;;;4.57;1.70;;;;;;;;;;4991935;28;20042;-38
2021/07/25 09:49:53;;;;;;;5.07;1.48;;;;;;;;;;4992145;28;20052;-38
2021/07/25 09:52:27;;;;;;;4.60;1.25;;;;;;;;;;4991998;28;20110;-38
2021/07/25 09:54:56;;;;;;;3.50;1.40;;;;;;;;;;4991694;28;20109;-38
2021/07/25 09:57:27;;;;;;;3.45;1.23;;;;;;;;;;4991983;28;20049;-38
2021/07/25 09:59:55;;;;;;;4.25;1.38;;;;;;;;;;4990580;28;20045;-38
2021/07/25 10:02:49;;;;;;;3.60;1.40;;;;;;;;;;4992213;28;20026;-37
2021/07/25 10:05:17;;;;;;;4.55;1.30;;;;;;;;;;4991982;28;20030;-37
2021/07/25 10:07:45;;;;;;;3.95;1.60;;;;;;;;;;4992056;28;20055;-38
2021/07/25 10:10:13;;;;;;;4.10;1.20;;;;;;;;;;4991463;28;20018;-37
2021/07/25 10:12:40;;;;;;;5.68;1.20;;;;;;;;;;4992137;28;20446;-38
2021/07/25 10:15:09;;;;;;;2.72;1.30;;;;;;;;;;4992149;28;20070;-37
2021/07/25 10:17:37;;;;;;;2.80;1.00;;;;;;;;;;4991266;28;20054;-38
2021/07/25 10:20:05;;;;;;;3.20;1.05;;;;;;;;;;4992266;28;20121;-38
2021/07/25 10:22:33;;;;;;;3.97;1.27;;;;;;;;;;4991498;28;20046;-37
2021/07/25 10:25:01;;;;;;;4.35;1.25;;;;;;;;;;4990519;28;20550;-38
2021/07/25 10:27:31;;;;;;;3.25;1.23;;;;;;;;;;4994130;28;20455;-38
2021/07/25 10:30:08;;;;;;;2.05;0.95;;;;;;;;;;4995965;28;20052;-38
2021/07/25 10:32:35;;;;;;;3.70;1.20;;;;;;;;;;4995442;28;20109;-38
2021/07/25 10:35:04;;;;;;;3.25;1.05;;;;;;;;;;4995841;28;20019;-41
2021/07/25 10:37:32;;;;;;;4.00;1.30;;;;;;;;;;4994975;28;20033;-37
2021/07/25 10:40:00;;;;;;;4.00;1.30;;;;;;;;;;4995694;28;20088;-38
2021/07/25 10:42:29;;;;;;;2.75;1.00;;;;;;;;;;4995330;28;20022;-38
2021/07/25 10:44:56;;;;;;;4.13;1.10;;;;;;;;;;4995954;28;20093;-37
2021/07/25 10:47:27;;;;;;;3.10;1.20;;;;;;;;;;4995038;28;20042;-37
2021/07/25 10:49:57;;;;;;;2.60;1.15;;;;;;;;;;4995385;28;20066;-38
2021/07/25 10:52:25;;;;;;;2.97;1.30;;;;;;;;;;4995529;28;20122;-37
2021/07/25 10:54:53;;;;;;;2.83;1.27;;;;;;;;;;4995381;28;20153;-37
2021/07/25 10:57:20;;;;;;;3.50;1.17;;;;;;;;;;4995199;28;20113;-38
2021/07/25 10:59:47;;;;;;;2.97;1.05;;;;;;;;;;4994777;28;20027;-38
2021/07/25 11:02:23;;;;;;;4.32;1.30;;;;;;;;;;4994162;28;20030;-38
2021/07/25 11:04:56;;;;;;;3.35;1.20;;;;;;;;;;4994758;28;20059;-37
2021/07/25 11:07:23;;;;;;;2.78;1.20;;;;;;;;;;4995045;28;20036;-38
2021/07/25 11:09:56;;;;;;;2.45;1.08;;;;;;;;;;4994633;28;20081;-38
2021/07/25 11:12:23;;;;;;;2.97;1.00;;;;;;;;;;4995088;28;20019;-38
2021/07/25 11:14:56;;;;;;;2.78;0.93;;;;;;;;;;4994653;28;20015;-40
2021/07/25 11:17:43;;;;;;;4.03;1.30;;;;;;;;;;4994534;28;20105;-38
2021/07/25 11:20:30;;;;;;;3.40;1.00;;;;;;;;;;4987201;28;20043;-38
2021/07/25 11:22:57;;;;;;;3.60;1.10;;;;;;;;;;4987972;28;20052;-38
2021/07/25 11:25:29;;;;;;;3.65;1.08;;;;;;;;;;4994413;28;20033;-38
2021/07/25 11:27:56;;;;;;;3.33;1.20;;;;;;;;;;4994661;28;20027;-38
2021/07/25 11:30:41;;;;;;;2.53;1.00;;;;;;;;;;4994171;28;20482;-38
2021/07/25 11:33:08;;;;;;;2.67;1.15;;;;;;;;;;4994757;28;20029;-39
2021/07/25 11:35:35;;;;;;;3.42;1.05;;;;;;;;;;4992950;28;20030;-38
2021/07/25 11:38:11;;;;;;;2.40;0.85;;;;;;;;;;4993162;28;20030;-39
2021/07/25 11:40:38;;;;;;;4.60;1.17;;;;;;;;;;4993441;28;20486;-38
2021/07/25 11:43:05;;;;;;;3.60;1.23;;;;;;;;;;4994062;28;20378;-38
2021/07/25 11:45:32;;;;;;;3.47;1.23;;;;;;;;;;4994169;28;20018;-38
2021/07/25 11:48:19;;;;;;;3.55;1.10;;;;;;;;;;4992814;28;20030;-38
2021/07/25 11:50:46;;;;;;;5.32;1.08;;;;;;;;;;4994328;28;20050;-38
2021/07/25 11:53:13;;;;;;;2.30;1.23;;;;;;;;;;4993908;28;20417;-38
2021/07/25 11:55:40;;;;;;;3.35;1.10;;;;;;;;;;4994271;28;20057;-39
2021/07/25 11:58:14;;;;;;;3.50;1.15;;;;;;;;;;4993866;28;20026;-40
2021/07/25 12:00:41;;;;;;;3.58;1.00;;;;;;;;;;4994175;28;20023;-38
2021/07/25 12:03:08;;;;;;;5.05;1.30;;;;;;;;;;4992498;28;20368;-38
2021/07/25 12:05:36;;;;;;;2.55;1.17;;;;;;;;;;4994198;28;20021;-37
2021/07/25 12:08:12;;;;;;;1.80;0.90;;;;;;;;;;4993198;28;20018;-38
2021/07/25 12:10:39;;;;;;;2.78;1.10;;;;;;;;;;4993840;28;20022;-38
2021/07/25 12:13:08;;;;;;;4.55;1.08;;;;;;;;;;4993063;28;20034;-38
2021/07/25 12:15:35;;;;;;;7.35;1.60;;;;;;;;;;4994095;28;20037;-38
2021/07/25 12:18:03;;;;;;;8.20;1.20;;;;;;;;;;4993526;28;20093;-38
2021/07/25 12:20:33;;;;;;;5.15;1.20;;;;;;;;;;4993358;28;20015;-37
2021/07/25 12:23:06;;;;;;;2.70;0.93;;;;;;;;;;4993932;28;20030;-37
2021/07/25 12:25:35;;;;;;;2.75;0.90;;;;;;;;;;4993276;28;20080;-38
2021/07/25 12:28:09;;;;;;;5.03;1.38;;;;;;;;;;4993384;28;20129;-39
2021/07/25 12:30:48;;;;;;;4.90;1.95;;;;;;;;;;4991718;28;20153;-37
2021/07/25 12:33:16;;;;;;;6.72;2.17;;;;;;;;;;4993516;28;20023;-37
2021/07/25 12:35:44;;;;;;;3.75;2.08;;;;;;;;;;4993246;28;20106;-38
2021/07/25 12:38:12;;;;;;;4.25;2.00;;;;;;;;;;4993236;28;20047;-37
2021/07/25 12:40:52;;;;;;;7.00;2.30;;;;;;;;;;4992772;28;20414;-39
2021/07/25 12:43:23;;;;;;;6.40;2.45;;;;;;;;;;4993500;28;20027;-38
2021/07/25 12:45:56;;;;;;;9.02;2.38;;;;;;;;;;4993472;28;20034;-38
2021/07/25 12:48:26;;;;;;;5.00;2.17;;;;;;;;;;4991136;28;20065;-38
2021/07/25 12:53:34;;;;;;;6.70;2.75;;;;;;;;;;4992719;28;20114;-38
2021/07/25 12:56:01;;;;;;;5.28;2.58;;;;;;;;;;4993207;28;20022;-39
2021/07/25 12:58:31;;;;;;;7.38;2.70;;;;;;;;;;4992252;28;20034;-38
2021/07/25 13:03:45;;;;;;;8.63;2.72;;;;;;;;;;4991790;28;20125;-39
2021/07/25 13:06:19;;;;;;;7.65;2.65;;;;;;;;;;4988492;28;20556;-38
2021/07/25 13:08:47;;;;;;;9.45;3.25;;;;;;;;;;4991453;28;20114;-37
2021/07/25 13:11:15;;;;;;;10.15;2.97;;;;;;;;;;4989797;28;20553;-38
2021/07/25 13:13:43;;;;;;;7.90;3.47;;;;;;;;;;4992371;28;20500;-37
2021/07/25 13:16:15;;;;;;;7.15;2.80;;;;;;;;;;4991906;28;20478;-38
2021/07/25 13:18:47;;;;;;;6.53;2.42;;;;;;;;;;4992057;28;20053;-38
2021/07/25 13:21:15;;;;;;;4.45;2.53;;;;;;;;;;4989131;28;20023;-37
2021/07/25 13:23:42;;;;;;;7.43;2.88;;;;;;;;;;4992211;28;20126;-40
2021/07/25 13:26:09;;;;;;;6.00;2.70;;;;;;;;;;4991539;28;20030;-37
2021/07/25 13:28:37;;;;;;;9.73;2.70;;;;;;;;;;4991868;28;20045;-38
2021/07/25 13:31:04;;;;;;;7.13;3.08;;;;;;;;;;4991481;28;20037;-39
2021/07/25 13:33:35;;;;;;;5.38;2.47;;;;;;;;;;4992174;28;20462;-38
2021/07/25 13:36:02;;;;;;;7.40;2.70;;;;;;;;;;4987709;28;20028;-38
2021/07/25 13:38:30;;;;;;;6.20;2.88;;;;;;;;;;4991636;28;20060;-39
2021/07/25 13:40:59;;;;;;;7.53;2.65;;;;;;;;;;4991082;28;20057;-38
2021/07/25 13:43:27;;;;;;;5.53;2.70;;;;;;;;;;4992045;28;20018;-37
2021/07/25 13:48:26;;;;;;;5.40;2.60;;;;;;;;;;4992508;28;20396;-37
2021/07/25 13:50:53;;;;;;;6.07;2.80;;;;;;;;;;4991964;28;20114;-38
2021/07/25 13:53:20;;;;;;;5.95;3.03;;;;;;;;;;4990376;28;20102;-38
2021/07/25 13:55:47;;;;;;;6.43;2.30;;;;;;;;;;4992276;28;20034;-38
2021/07/25 13:58:14;;;;;;;6.10;2.78;;;;;;;;;;4989371;28;20023;-38
2021/07/25 14:00:41;;;;;;;5.93;2.35;;;;;;;;;;4983239;28;20458;-38
2021/07/25 14:03:08;;;;;;;6.60;2.63;;;;;;;;;;4989688;28;20030;-38
2021/07/25 14:05:35;;;;;;;5.95;2.28;;;;;;;;;;4988192;28;20022;-38
2021/07/25 14:08:03;;;;;;;7.05;2.53;;;;;;;;;;4986679;28;20401;-37
2021/07/25 14:10:31;;;;;;;7.05;2.45;;;;;;;;;;4989261;28;20070;-38
2021/07/25 14:12:58;;;;;;;4.57;2.13;;;;;;;;;;4987399;28;20033;-37
2021/07/25 14:15:25;;;;;;;5.35;2.58;;;;;;;;;;4985881;28;20162;-37
2021/07/25 14:17:53;;;;;;;6.55;2.30;;;;;;;;;;4987338;28;20690;-37
2021/07/25 14:20:21;;;;;;;6.65;2.58;;;;;;;;;;4986621;28;20065;-37
2021/07/25 14:22:48;;;;;;;10.23;2.30;;;;;;;;;;4986907;28;20062;-37
2021/07/25 14:25:16;;;;;;;7.40;2.15;;;;;;;;;;4988006;28;20081;-37
2021/07/25 14:27:43;;;;;;;4.82;2.00;;;;;;;;;;4989272;28;20038;-37
2021/07/25 14:30:10;;;;;;;5.28;2.22;;;;;;;;;;4987187;28;20554;-37
2021/07/25 14:32:41;;;;;;;4.88;1.80;;;;;;;;;;4987166;28;20025;-37
2021/07/25 14:35:11;;;;;;;7.40;2.47;;;;;;;;;;4985104;28;20130;-37
2021/07/25 14:37:38;;;;;;;5.25;2.05;;;;;;;;;;4988635;28;20061;-37
2021/07/25 14:40:09;;;;;;;5.47;2.10;;;;;;;;;;4986722;28;20110;-37
2021/07/25 14:42:37;;;;;;;8.70;2.30;;;;;;;;;;4984140;28;20023;-37
2021/07/25 14:45:04;;;;;;;6.63;2.00;;;;;;;;;;4989110;28;20459;-38
2021/07/25 14:47:34;;;;;;;18.33;2.50;;;;;;;;;;4989734;28;20386;-37
2021/07/25 14:50:01;;;;;;;7.45;2.25;;;;;;;;;;4988311;28;20057;-38
2021/07/25 14:52:28;;;;;;;8.27;2.25;;;;;;;;;;4989027;28;20062;-37
2021/07/25 14:54:55;;;;;;;6.60;2.28;;;;;;;;;;4990890;28;20022;-37